createdAt,value
2018-04-24T00:00:02.247Z,804.48
2018-04-24T00:00:06.459Z,804.47
2018-04-24T00:00:10.561Z,804.47
2018-04-24T00:00:14.769Z,804.49
2018-04-24T00:00:18.871Z,804.46
2018-04-24T00:00:23.263Z,804.45
2018-04-24T00:00:27.583Z,804.45
2018-04-24T00:00:31.903Z,804.45
2018-04-24T00:00:36.009Z,804.49
2018-04-24T00:00:40.107Z,804.47
2018-04-24T00:00:44.314Z,804.47
2018-04-24T00:00:48.703Z,804.48
2018-04-24T00:00:52.808Z,804.44
2018-04-24T00:00:57.020Z,804.46
2018-04-24T00:01:01.233Z,804.52
2018-04-24T00:01:05.279Z,804.49
2018-04-24T00:01:09.602Z,804.48
2018-04-24T00:01:13.924Z,804.51
2018-04-24T00:01:18.326Z,804.45
2018-04-24T00:01:22.424Z,804.49
2018-04-24T00:01:26.630Z,804.5
2018-04-24T00:01:30.730Z,804.5
2018-04-24T00:01:34.734Z,804.48
2018-04-24T00:01:39.060Z,804.48
2018-04-24T00:01:43.387Z,804.5
2018-04-24T00:01:47.595Z,804.48
2018-04-24T00:01:51.705Z,804.48
2018-04-24T00:01:56.049Z,804.51
2018-04-24T00:02:00.037Z,804.48
2018-04-24T00:02:04.179Z,804.5
2018-04-24T00:02:08.474Z,804.48
2018-04-24T00:02:12.681Z,804.49
2018-04-24T00:02:16.989Z,804.53
2018-04-24T00:02:21.345Z,804.49
2018-04-24T00:02:25.449Z,804.51
2018-04-24T00:02:29.658Z,804.5
2018-04-24T00:02:33.759Z,804.47
2018-04-24T00:02:37.980Z,804.5
2018-04-24T00:02:42.077Z,804.51
2018-04-24T00:02:46.393Z,804.53
2018-04-24T00:02:50.508Z,804.53
2018-04-24T00:02:54.818Z,804.52
2018-04-24T00:02:59.044Z,804.49
2018-04-24T00:03:03.266Z,804.5
2018-04-24T00:03:07.373Z,804.52
2018-04-24T00:03:11.699Z,804.51
2018-04-24T00:03:16.095Z,804.51
2018-04-24T00:03:20.411Z,804.5
2018-04-24T00:03:24.732Z,804.52
2018-04-24T00:03:28.831Z,804.52
2018-04-24T00:03:33.042Z,804.55
2018-04-24T00:03:37.265Z,804.49
2018-04-24T00:03:41.575Z,804.47
2018-04-24T00:03:45.781Z,804.53
2018-04-24T00:03:50.002Z,804.48
2018-04-24T00:03:54.100Z,804.55
2018-04-24T00:03:58.204Z,804.55
2018-04-24T00:04:02.511Z,804.56
2018-04-24T00:04:06.841Z,804.56
2018-04-24T00:04:11.155Z,804.56
2018-04-24T00:04:15.383Z,804.56
2018-04-24T00:04:19.596Z,804.57
2018-04-24T00:04:23.692Z,804.55
2018-04-24T00:04:27.689Z,804.57
2018-04-24T00:04:32.000Z,804.58
2018-04-24T00:04:36.319Z,804.54
2018-04-24T00:04:40.657Z,804.55
2018-04-24T00:04:44.752Z,804.58
2018-04-24T00:04:48.963Z,804.57
2018-04-24T00:04:53.135Z,804.59
2018-04-24T00:04:57.449Z,804.57
2018-04-24T00:05:01.547Z,804.6
2018-04-24T00:05:05.653Z,804.58
2018-04-24T00:05:09.865Z,804.58
2018-04-24T00:05:13.961Z,804.58
2018-04-24T00:05:18.172Z,804.61
2018-04-24T00:05:22.379Z,804.61
2018-04-24T00:05:26.694Z,804.64
2018-04-24T00:05:31.007Z,804.62
2018-04-24T00:05:35.218Z,804.61
2018-04-24T00:05:39.535Z,804.62
2018-04-24T00:05:43.756Z,804.63
2018-04-24T00:05:47.967Z,804.61
2018-04-24T00:05:52.063Z,804.62
2018-04-24T00:05:56.167Z,804.63
2018-04-24T00:06:00.267Z,804.67
2018-04-24T00:06:04.258Z,804.64
2018-04-24T00:06:08.253Z,804.67
2018-04-24T00:06:12.511Z,804.67
2018-04-24T00:06:16.740Z,804.67
2018-04-24T00:06:20.836Z,804.68
2018-04-24T00:06:25.049Z,804.68
2018-04-24T00:06:29.440Z,804.68
2018-04-24T00:06:33.756Z,804.68
2018-04-24T00:06:37.969Z,804.69
2018-04-24T00:06:42.361Z,804.72
2018-04-24T00:06:46.566Z,804.69
2018-04-24T00:06:50.778Z,804.74
2018-04-24T00:06:54.980Z,804.69
2018-04-24T00:06:59.187Z,804.71
2018-04-24T00:07:03.342Z,804.72
2018-04-24T00:07:07.340Z,804.72
2018-04-24T00:07:11.438Z,804.72
2018-04-24T00:07:15.751Z,804.76
2018-04-24T00:07:19.961Z,804.73
2018-04-24T00:07:24.055Z,804.71
2018-04-24T00:07:28.383Z,804.72
2018-04-24T00:07:32.481Z,804.72
2018-04-24T00:07:36.688Z,804.7
2018-04-24T00:07:40.896Z,804.71
2018-04-24T00:07:45.217Z,804.77
2018-04-24T00:07:49.426Z,804.74
2018-04-24T00:07:53.417Z,804.74
2018-04-24T00:07:57.514Z,804.7
2018-04-24T00:08:01.716Z,804.76
2018-04-24T00:08:05.937Z,804.8
2018-04-24T00:08:10.164Z,804.77
2018-04-24T00:08:14.412Z,804.76
2018-04-24T00:08:18.617Z,804.82
2018-04-24T00:08:22.931Z,804.74
2018-04-24T00:08:27.031Z,804.78
2018-04-24T00:08:31.237Z,804.76
2018-04-24T00:08:35.551Z,804.78
2018-04-24T00:08:39.553Z,804.79
2018-04-24T00:08:43.769Z,804.79
2018-04-24T00:08:47.977Z,804.82
2018-04-24T00:08:52.186Z,804.84
2018-04-24T00:08:56.397Z,804.81
2018-04-24T00:09:00.499Z,804.83
2018-04-24T00:09:04.614Z,804.84
2018-04-24T00:09:08.926Z,804.81
2018-04-24T00:09:13.247Z,804.79
2018-04-24T00:09:17.453Z,804.84
2018-04-24T00:09:21.658Z,804.81
2018-04-24T00:09:25.650Z,804.82
2018-04-24T00:09:29.544Z,804.84
2018-04-24T00:09:33.757Z,804.84
2018-04-24T00:09:38.072Z,804.85
2018-04-24T00:09:42.307Z,804.82
2018-04-24T00:09:46.652Z,804.84
2018-04-24T00:09:51.448Z,804.84
2018-04-24T00:09:56.300Z,804.86
2018-04-24T00:10:00.376Z,804.86
2018-04-24T00:10:04.590Z,804.88
2018-04-24T00:10:08.809Z,804.88
2018-04-24T00:10:13.017Z,804.88
2018-04-24T00:10:17.224Z,804.86
2018-04-24T00:10:21.535Z,804.82
2018-04-24T00:10:25.747Z,804.86
2018-04-24T00:10:30.058Z,804.82
2018-04-24T00:10:34.379Z,804.82
2018-04-24T00:10:38.585Z,804.83
2018-04-24T00:10:42.804Z,804.91
2018-04-24T00:10:46.904Z,804.89
2018-04-24T00:10:51.109Z,804.9
2018-04-24T00:10:55.426Z,804.89
2018-04-24T00:10:59.422Z,804.92
2018-04-24T00:11:03.580Z,804.92
2018-04-24T00:11:07.798Z,804.89
2018-04-24T00:11:12.009Z,804.91
2018-04-24T00:11:16.222Z,804.86
2018-04-24T00:11:20.320Z,804.87
2018-04-24T00:11:24.578Z,804.9
2018-04-24T00:11:28.786Z,804.89
2018-04-24T00:11:33.107Z,804.94
2018-04-24T00:11:37.431Z,804.94
2018-04-24T00:11:41.529Z,804.94
2018-04-24T00:11:45.744Z,804.92
2018-04-24T00:11:50.062Z,804.93
2018-04-24T00:11:54.451Z,804.91
2018-04-24T00:11:58.552Z,804.93
2018-04-24T00:12:02.552Z,804.92
2018-04-24T00:12:06.655Z,804.91
2018-04-24T00:12:10.765Z,804.92
2018-04-24T00:12:14.968Z,804.94
2018-04-24T00:12:19.291Z,804.95
2018-04-24T00:12:23.395Z,804.9
2018-04-24T00:12:27.606Z,804.91
2018-04-24T00:12:31.811Z,804.94
2018-04-24T00:12:35.956Z,804.97
2018-04-24T00:12:40.157Z,804.93
2018-04-24T00:12:44.482Z,804.94
2018-04-24T00:12:48.801Z,804.98
2018-04-24T00:12:53.115Z,804.98
2018-04-24T00:12:57.432Z,804.99
2018-04-24T00:13:01.641Z,804.96
2018-04-24T00:13:05.751Z,804.98
2018-04-24T00:13:10.258Z,804.96
2018-04-24T00:13:14.359Z,804.98
2018-04-24T00:13:18.566Z,804.96
2018-04-24T00:13:22.878Z,804.96
2018-04-24T00:13:27.088Z,804.97
2018-04-24T00:13:31.196Z,804.98
2018-04-24T00:13:35.510Z,804.97
2018-04-24T00:13:39.718Z,804.97
2018-04-24T00:13:43.830Z,804.96
2018-04-24T00:13:48.044Z,804.97
2018-04-24T00:13:52.364Z,804.97
2018-04-24T00:13:56.677Z,805
2018-04-24T00:14:00.901Z,804.98
2018-04-24T00:14:05.234Z,805.01
2018-04-24T00:14:09.549Z,805.01
2018-04-24T00:14:13.753Z,805.01
2018-04-24T00:14:17.853Z,805
2018-04-24T00:14:21.951Z,804.97
2018-04-24T00:14:25.947Z,804.98
2018-04-24T00:14:30.051Z,805.01
2018-04-24T00:14:34.366Z,804.98
2018-04-24T00:14:38.682Z,804.98
2018-04-24T00:14:42.884Z,804.98
2018-04-24T00:14:47.089Z,804.93
2018-04-24T00:14:51.399Z,805.01
2018-04-24T00:14:55.720Z,804.98
2018-04-24T00:14:59.926Z,804.98
2018-04-24T00:15:04.079Z,805.01
2018-04-24T00:15:08.408Z,804.98
2018-04-24T00:15:12.723Z,805
2018-04-24T00:15:16.821Z,804.96
2018-04-24T00:15:20.812Z,805
2018-04-24T00:15:25.019Z,805
2018-04-24T00:15:29.336Z,804.95
2018-04-24T00:15:33.437Z,805
2018-04-24T00:15:37.750Z,804.98
2018-04-24T00:15:42.060Z,804.99
2018-04-24T00:15:46.390Z,804.99
2018-04-24T00:15:50.712Z,805.01
2018-04-24T00:15:54.707Z,805.01
2018-04-24T00:15:58.915Z,805.02
2018-04-24T00:16:03.227Z,804.98
2018-04-24T00:16:07.452Z,805.01
2018-04-24T00:16:11.712Z,805.02
2018-04-24T00:16:15.919Z,804.98
2018-04-24T00:16:20.239Z,805
2018-04-24T00:16:24.441Z,805.01
2018-04-24T00:16:28.655Z,805.01
2018-04-24T00:16:32.984Z,804.98
2018-04-24T00:16:37.313Z,805.01
2018-04-24T00:16:41.630Z,804.93
2018-04-24T00:16:45.949Z,805.02
2018-04-24T00:16:50.236Z,805
2018-04-24T00:16:54.445Z,805.03
2018-04-24T00:16:58.758Z,805.02
2018-04-24T00:17:02.972Z,804.97
2018-04-24T00:17:07.071Z,805.01
2018-04-24T00:17:11.389Z,805.01
2018-04-24T00:17:15.709Z,805.03
2018-04-24T00:17:19.920Z,805.03
2018-04-24T00:17:24.127Z,804.97
2018-04-24T00:17:28.345Z,805.02
2018-04-24T00:17:32.444Z,805.03
2018-04-24T00:17:36.766Z,805.05
2018-04-24T00:17:40.752Z,805.04
2018-04-24T00:17:44.859Z,805.04
2018-04-24T00:17:49.138Z,805.02
2018-04-24T00:17:53.460Z,805.02
2018-04-24T00:17:57.674Z,805.05
2018-04-24T00:18:01.664Z,805.05
2018-04-24T00:18:05.771Z,804.96
2018-04-24T00:18:10.126Z,805.03
2018-04-24T00:18:14.538Z,805.04
2018-04-24T00:18:19.243Z,805.05
2018-04-24T00:18:23.659Z,805.03
2018-04-24T00:18:27.863Z,805
2018-04-24T00:18:31.966Z,805
2018-04-24T00:18:36.180Z,804.99
2018-04-24T00:18:40.278Z,805.04
2018-04-24T00:18:44.383Z,805.03
2018-04-24T00:18:48.701Z,804.98
2018-04-24T00:18:52.908Z,805.05
2018-04-24T00:18:57.225Z,805.05
2018-04-24T00:19:01.539Z,805.06
2018-04-24T00:19:05.640Z,805.05
2018-04-24T00:19:09.636Z,805.07
2018-04-24T00:19:13.733Z,805.07
2018-04-24T00:19:18.050Z,805.07
2018-04-24T00:19:22.256Z,805.09
2018-04-24T00:19:26.352Z,805.07
2018-04-24T00:19:30.464Z,805.08
2018-04-24T00:19:34.666Z,805.08
2018-04-24T00:19:38.988Z,805.04
2018-04-24T00:19:43.197Z,805.08
2018-04-24T00:19:47.513Z,805.07
2018-04-24T00:19:51.715Z,805.05
2018-04-24T00:19:55.927Z,805.04
2018-04-24T00:19:59.913Z,805.04
2018-04-24T00:20:03.967Z,805.09
2018-04-24T00:20:07.964Z,805.1
2018-04-24T00:20:12.072Z,805.12
2018-04-24T00:20:16.064Z,805.1
2018-04-24T00:20:20.169Z,805.04
2018-04-24T00:20:24.477Z,805.1
2018-04-24T00:20:28.792Z,805.11
2018-04-24T00:20:33.008Z,805.1
2018-04-24T00:20:37.214Z,805.11
2018-04-24T00:20:41.417Z,805.06
2018-04-24T00:20:45.532Z,805.1
2018-04-24T00:20:49.739Z,805.09
2018-04-24T00:20:54.049Z,805.11
2018-04-24T00:20:58.368Z,805.1
2018-04-24T00:21:02.732Z,805.07
2018-04-24T00:21:06.620Z,805.11
2018-04-24T00:21:10.838Z,805.09
2018-04-24T00:21:14.729Z,805.12
2018-04-24T00:21:18.844Z,805.11
2018-04-24T00:21:22.952Z,805.09
2018-04-24T00:21:27.283Z,805.1
2018-04-24T00:21:31.489Z,805.12
2018-04-24T00:21:35.697Z,805.1
2018-04-24T00:21:40.015Z,805.13
2018-04-24T00:21:44.233Z,805.12
2018-04-24T00:21:48.449Z,805.14
2018-04-24T00:21:52.674Z,805.12
2018-04-24T00:21:56.772Z,805.09
2018-04-24T00:22:00.773Z,805.12
2018-04-24T00:22:04.989Z,805.09
2018-04-24T00:22:09.324Z,805.11
2018-04-24T00:22:13.420Z,805.1
2018-04-24T00:22:17.635Z,805.11
2018-04-24T00:22:21.840Z,805.09
2018-04-24T00:22:26.086Z,805.09
2018-04-24T00:22:30.077Z,805.13
2018-04-24T00:22:34.389Z,805.1
2018-04-24T00:22:38.601Z,805.1
2018-04-24T00:22:42.813Z,805.11
2018-04-24T00:22:46.917Z,805.12
2018-04-24T00:22:51.242Z,805.1
2018-04-24T00:22:55.449Z,805.11
2018-04-24T00:22:59.768Z,805.1
2018-04-24T00:23:03.978Z,805.13
2018-04-24T00:23:08.177Z,805.14
2018-04-24T00:23:12.061Z,805.11
2018-04-24T00:23:16.385Z,805.09
2018-04-24T00:23:20.706Z,805.1
2018-04-24T00:23:24.920Z,805.08
2018-04-24T00:23:29.021Z,805.08
2018-04-24T00:23:33.235Z,805.07
2018-04-24T00:23:37.550Z,805.09
2018-04-24T00:23:41.876Z,805.02
2018-04-24T00:23:45.993Z,805.06
2018-04-24T00:23:50.225Z,805.07
2018-04-24T00:23:54.548Z,805.1
2018-04-24T00:23:58.864Z,805.08
2018-04-24T00:24:03.077Z,805.09
2018-04-24T00:24:07.308Z,805.05
2018-04-24T00:24:11.694Z,805.05
2018-04-24T00:24:16.014Z,805.02
2018-04-24T00:24:20.342Z,805.04
2018-04-24T00:24:24.439Z,805.1
2018-04-24T00:24:28.437Z,805.08
2018-04-24T00:24:32.444Z,805.06
2018-04-24T00:24:36.441Z,805.03
2018-04-24T00:24:40.761Z,805.04
2018-04-24T00:24:44.969Z,805.11
2018-04-24T00:24:49.181Z,805.08
2018-04-24T00:24:53.393Z,805.05
2018-04-24T00:24:57.702Z,805.05
2018-04-24T00:25:01.910Z,805.04
2018-04-24T00:25:05.963Z,805.03
2018-04-24T00:25:10.119Z,805.07
2018-04-24T00:25:14.222Z,805.07
2018-04-24T00:25:18.329Z,805.06
2018-04-24T00:25:22.434Z,805.06
2018-04-24T00:25:26.535Z,805.07
2018-04-24T00:25:30.737Z,805.06
2018-04-24T00:25:34.945Z,805.07
2018-04-24T00:25:39.046Z,805.06
2018-04-24T00:25:43.139Z,805.06
2018-04-24T00:25:47.347Z,805.08
2018-04-24T00:25:51.555Z,805.06
2018-04-24T00:25:55.770Z,805.05
2018-04-24T00:26:00.067Z,805.06
2018-04-24T00:26:04.518Z,805.07
2018-04-24T00:26:08.974Z,805.08
2018-04-24T00:26:13.490Z,805.06
2018-04-24T00:26:17.673Z,805.08
2018-04-24T00:26:21.895Z,805.09
2018-04-24T00:26:26.210Z,805.01
2018-04-24T00:26:30.315Z,805.05
2018-04-24T00:26:34.631Z,805.07
2018-04-24T00:26:38.945Z,805.06
2018-04-24T00:26:43.045Z,805.09
2018-04-24T00:26:47.247Z,805.07
2018-04-24T00:26:51.465Z,805.06
2018-04-24T00:26:55.779Z,805.14
2018-04-24T00:26:59.890Z,805.06
2018-04-24T00:27:03.934Z,805.14
2018-04-24T00:27:08.251Z,805.08
2018-04-24T00:27:12.354Z,805.07
2018-04-24T00:27:16.669Z,805.09
2018-04-24T00:27:20.877Z,805.09
2018-04-24T00:27:25.090Z,805.11
2018-04-24T00:27:29.080Z,805.1
2018-04-24T00:27:33.398Z,805.09
2018-04-24T00:27:37.608Z,805.09
2018-04-24T00:27:41.813Z,805.11
2018-04-24T00:27:46.018Z,805.08
2018-04-24T00:27:50.239Z,805.04
2018-04-24T00:27:54.551Z,805.1
2018-04-24T00:27:58.543Z,805.1
2018-04-24T00:28:02.758Z,805.1
2018-04-24T00:28:06.966Z,805.1
2018-04-24T00:28:11.280Z,805.09
2018-04-24T00:28:15.382Z,805.08
2018-04-24T00:28:19.589Z,805.08
2018-04-24T00:28:23.897Z,805.09
2018-04-24T00:28:28.217Z,805.09
2018-04-24T00:28:32.429Z,805.08
2018-04-24T00:28:36.527Z,805.09
2018-04-24T00:28:40.852Z,805.07
2018-04-24T00:28:45.067Z,805.1
2018-04-24T00:28:49.312Z,805.08
2018-04-24T00:28:53.517Z,805.11
2018-04-24T00:28:57.835Z,805.09
2018-04-24T00:29:02.046Z,805.08
2018-04-24T00:29:06.040Z,805.08
2018-04-24T00:29:10.372Z,805.06
2018-04-24T00:29:14.475Z,805.07
2018-04-24T00:29:18.466Z,805.06
2018-04-24T00:29:22.676Z,805.06
2018-04-24T00:29:26.831Z,805.05
2018-04-24T00:29:30.932Z,805.04
2018-04-24T00:29:35.034Z,805.03
2018-04-24T00:29:39.029Z,805.05
2018-04-24T00:29:43.234Z,805.03
2018-04-24T00:29:47.559Z,805.05
2018-04-24T00:29:51.877Z,805.01
2018-04-24T00:29:56.189Z,805.01
2018-04-24T00:30:00.580Z,804.98
2018-04-24T00:30:04.693Z,805.02
2018-04-24T00:30:08.866Z,805.06
2018-04-24T00:30:13.186Z,805.02
2018-04-24T00:30:17.286Z,805.03
2018-04-24T00:30:21.494Z,805.08
2018-04-24T00:30:25.484Z,805.03
2018-04-24T00:30:29.711Z,805.05
2018-04-24T00:30:34.023Z,805.05
2018-04-24T00:30:38.231Z,805.03
2018-04-24T00:30:42.451Z,805.04
2018-04-24T00:30:46.549Z,805.04
2018-04-24T00:30:50.650Z,805.07
2018-04-24T00:30:54.975Z,805.03
2018-04-24T00:30:59.185Z,805.08
2018-04-24T00:31:03.290Z,805.07
2018-04-24T00:31:07.498Z,805.06
2018-04-24T00:31:11.721Z,805
2018-04-24T00:31:15.947Z,805.05
2018-04-24T00:31:20.259Z,805.07
2018-04-24T00:31:24.574Z,805.08
2018-04-24T00:31:28.567Z,805.06
2018-04-24T00:31:32.668Z,805.05
2018-04-24T00:31:36.776Z,805.07
2018-04-24T00:31:41.092Z,805.05
2018-04-24T00:31:45.322Z,805.04
2018-04-24T00:31:49.636Z,805.03
2018-04-24T00:31:53.845Z,805.02
2018-04-24T00:31:58.164Z,804.99
2018-04-24T00:32:02.380Z,805.05
2018-04-24T00:32:06.489Z,804.98
2018-04-24T00:32:10.591Z,805
2018-04-24T00:32:14.808Z,805.03
2018-04-24T00:32:19.015Z,805.03
2018-04-24T00:32:23.297Z,805.04
2018-04-24T00:32:27.618Z,805.02
2018-04-24T00:32:31.814Z,804.99
2018-04-24T00:32:35.912Z,805
2018-04-24T00:32:40.120Z,804.94
2018-04-24T00:32:44.518Z,805.03
2018-04-24T00:32:48.731Z,805
2018-04-24T00:32:53.048Z,804.98
2018-04-24T00:32:57.373Z,805.01
2018-04-24T00:33:01.682Z,805.01
2018-04-24T00:33:05.681Z,804.99
2018-04-24T00:33:09.887Z,805.02
2018-04-24T00:33:13.990Z,805.04
2018-04-24T00:33:18.211Z,805.01
2018-04-24T00:33:22.536Z,805.02
2018-04-24T00:33:26.772Z,805.01
2018-04-24T00:33:30.979Z,805.03
2018-04-24T00:33:35.183Z,805.04
2018-04-24T00:33:39.389Z,805
2018-04-24T00:33:43.602Z,805.02
2018-04-24T00:33:47.819Z,805.02
2018-04-24T00:33:51.922Z,805.03
2018-04-24T00:33:56.231Z,805.04
2018-04-24T00:34:00.338Z,805.01
2018-04-24T00:34:04.561Z,805.03
2018-04-24T00:34:08.881Z,805.04
2018-04-24T00:34:13.097Z,805.03
2018-04-24T00:34:17.245Z,805.05
2018-04-24T00:34:21.885Z,804.98
2018-04-24T00:34:26.605Z,805.03
2018-04-24T00:34:31.069Z,805.04
2018-04-24T00:34:35.273Z,805.04
2018-04-24T00:34:39.479Z,805.05
2018-04-24T00:34:43.689Z,805.06
2018-04-24T00:34:47.681Z,805.06
2018-04-24T00:34:51.899Z,805.02
2018-04-24T00:34:56.122Z,805.05
2018-04-24T00:35:00.326Z,805.05
2018-04-24T00:35:04.106Z,805.06
2018-04-24T00:35:08.218Z,805.06
2018-04-24T00:35:12.533Z,805.08
2018-04-24T00:35:16.745Z,805.09
2018-04-24T00:35:20.956Z,805.06
2018-04-24T00:35:25.067Z,805.09
2018-04-24T00:35:29.274Z,805.08
2018-04-24T00:35:33.590Z,805.07
2018-04-24T00:35:37.796Z,805.1
2018-04-24T00:35:42.012Z,805.08
2018-04-24T00:35:46.221Z,805.09
2018-04-24T00:35:50.425Z,805.08
2018-04-24T00:35:54.543Z,805.04
2018-04-24T00:35:58.654Z,805.08
2018-04-24T00:36:02.864Z,805.1
2018-04-24T00:36:06.751Z,805.09
2018-04-24T00:36:10.955Z,805.09
2018-04-24T00:36:15.052Z,805.07
2018-04-24T00:36:19.258Z,805.06
2018-04-24T00:36:23.472Z,805.09
2018-04-24T00:36:27.682Z,805.09
2018-04-24T00:36:32.006Z,805.08
2018-04-24T00:36:36.326Z,805.05
2018-04-24T00:36:40.527Z,805.08
2018-04-24T00:36:44.516Z,805.1
2018-04-24T00:36:48.839Z,805.08
2018-04-24T00:36:53.055Z,805.07
2018-04-24T00:36:57.374Z,805.09
2018-04-24T00:37:01.580Z,805.11
2018-04-24T00:37:05.680Z,805.08
2018-04-24T00:37:09.787Z,805.06
2018-04-24T00:37:13.886Z,805.11
2018-04-24T00:37:18.096Z,805.08
2018-04-24T00:37:22.403Z,805.13
2018-04-24T00:37:26.504Z,805.12
2018-04-24T00:37:30.605Z,805.14
2018-04-24T00:37:34.813Z,805.13
2018-04-24T00:37:39.019Z,805.11
2018-04-24T00:37:43.406Z,805.13
2018-04-24T00:37:47.724Z,805.13
2018-04-24T00:37:51.832Z,805.17
2018-04-24T00:37:56.149Z,805.14
2018-04-24T00:38:00.475Z,805.14
2018-04-24T00:38:04.575Z,805.16
2018-04-24T00:38:08.675Z,805.17
2018-04-24T00:38:12.887Z,805.17
2018-04-24T00:38:16.985Z,805.17
2018-04-24T00:38:21.094Z,805.17
2018-04-24T00:38:25.410Z,805.16
2018-04-24T00:38:29.730Z,805.16
2018-04-24T00:38:33.941Z,805.16
2018-04-24T00:38:38.151Z,805.15
2018-04-24T00:38:42.465Z,805.16
2018-04-24T00:38:46.673Z,805.16
2018-04-24T00:38:50.995Z,805.14
2018-04-24T00:38:55.208Z,805.13
2018-04-24T00:38:59.264Z,805.15
2018-04-24T00:39:03.581Z,805.12
2018-04-24T00:39:07.785Z,805.16
2018-04-24T00:39:11.994Z,805.14
2018-04-24T00:39:16.093Z,805.13
2018-04-24T00:39:20.296Z,805.15
2018-04-24T00:39:24.502Z,805.14
2018-04-24T00:39:28.385Z,805.15
2018-04-24T00:39:32.494Z,805.14
2018-04-24T00:39:36.704Z,805.14
2018-04-24T00:39:41.015Z,805.16
2018-04-24T00:39:45.225Z,805.11
2018-04-24T00:39:49.541Z,805.1
2018-04-24T00:39:53.747Z,805.13
2018-04-24T00:39:57.957Z,805.15
2018-04-24T00:40:02.171Z,805.14
2018-04-24T00:40:06.059Z,805.1
2018-04-24T00:40:10.167Z,805.1
2018-04-24T00:40:14.495Z,805.13
2018-04-24T00:40:18.598Z,805.12
2018-04-24T00:40:22.698Z,805.13
2018-04-24T00:40:26.809Z,805.15
2018-04-24T00:40:30.923Z,805.16
2018-04-24T00:40:35.254Z,805.12
2018-04-24T00:40:39.371Z,805.16
2018-04-24T00:40:43.690Z,805.15
2018-04-24T00:40:47.902Z,805.15
2018-04-24T00:40:52.220Z,805.17
2018-04-24T00:40:56.437Z,805.18
2018-04-24T00:41:00.647Z,805.16
2018-04-24T00:41:04.643Z,805.17
2018-04-24T00:41:08.743Z,805.18
2018-04-24T00:41:12.846Z,805.18
2018-04-24T00:41:16.950Z,805.17
2018-04-24T00:41:21.157Z,805.15
2018-04-24T00:41:25.477Z,805.16
2018-04-24T00:41:29.587Z,805.16
2018-04-24T00:41:33.815Z,805.11
2018-04-24T00:41:38.025Z,805.12
2018-04-24T00:41:42.235Z,805.17
2018-04-24T00:41:46.445Z,805.15
2018-04-24T00:41:50.766Z,805.15
2018-04-24T00:41:54.938Z,805.11
2018-04-24T00:41:59.151Z,805.14
2018-04-24T00:42:03.305Z,805.21
2018-04-24T00:42:07.636Z,805.13
2018-04-24T00:42:11.843Z,805.21
2018-04-24T00:42:16.067Z,805.15
2018-04-24T00:42:20.166Z,805.2
2018-04-24T00:42:24.264Z,805.17
2018-04-24T00:42:28.254Z,805.18
2018-04-24T00:42:32.475Z,805.18
2018-04-24T00:42:36.864Z,805.18
2018-04-24T00:42:41.077Z,805.21
2018-04-24T00:42:45.185Z,805.19
2018-04-24T00:42:49.396Z,805.18
2018-04-24T00:42:53.717Z,805.16
2018-04-24T00:42:57.818Z,805.15
2018-04-24T00:43:02.023Z,805.18
2018-04-24T00:43:06.132Z,805.17
2018-04-24T00:43:10.339Z,805.18
2018-04-24T00:43:14.737Z,805.17
2018-04-24T00:43:19.054Z,805.15
2018-04-24T00:43:23.156Z,805.17
2018-04-24T00:43:27.366Z,805.18
2018-04-24T00:43:31.572Z,805.15
2018-04-24T00:43:35.887Z,805.17
2018-04-24T00:43:39.989Z,805.18
2018-04-24T00:43:44.198Z,805.21
2018-04-24T00:43:48.414Z,805.18
2018-04-24T00:43:52.621Z,805.2
2018-04-24T00:43:56.933Z,805.15
2018-04-24T00:44:01.148Z,805.16
2018-04-24T00:44:05.256Z,805.19
2018-04-24T00:44:09.364Z,805.16
2018-04-24T00:44:13.467Z,805.18
2018-04-24T00:44:17.785Z,805.16
2018-04-24T00:44:22.102Z,805.16
2018-04-24T00:44:26.217Z,805.15
2018-04-24T00:44:30.433Z,805.17
2018-04-24T00:44:34.744Z,805.19
2018-04-24T00:44:39.069Z,805.18
2018-04-24T00:44:43.377Z,805.19
2018-04-24T00:44:47.587Z,805.17
2018-04-24T00:44:51.829Z,805.16
2018-04-24T00:44:56.038Z,805.15
2018-04-24T00:45:00.350Z,805.18
2018-04-24T00:45:04.503Z,805.17
2018-04-24T00:45:08.609Z,805.18
2018-04-24T00:45:12.818Z,805.19
2018-04-24T00:45:17.134Z,805.14
2018-04-24T00:45:21.354Z,805.17
2018-04-24T00:45:25.561Z,805.18
2018-04-24T00:45:29.775Z,805.21
2018-04-24T00:45:33.988Z,805.21
2018-04-24T00:45:38.301Z,805.2
2018-04-24T00:45:42.609Z,805.22
2018-04-24T00:45:47.016Z,805.23
2018-04-24T00:45:51.484Z,805.16
2018-04-24T00:45:56.143Z,805.16
2018-04-24T00:46:00.612Z,805.19
2018-04-24T00:46:04.721Z,805.2
2018-04-24T00:46:09.052Z,805.18
2018-04-24T00:46:13.267Z,805.2
2018-04-24T00:46:17.483Z,805.19
2018-04-24T00:46:21.699Z,805.21
2018-04-24T00:46:25.769Z,805.19
2018-04-24T00:46:29.993Z,805.19
2018-04-24T00:46:34.102Z,805.18
2018-04-24T00:46:38.414Z,805.19
2018-04-24T00:46:42.617Z,805.19
2018-04-24T00:46:46.930Z,805.2
2018-04-24T00:46:51.131Z,805.2
2018-04-24T00:46:55.444Z,805.18
2018-04-24T00:46:59.546Z,805.21
2018-04-24T00:47:03.761Z,805.21
2018-04-24T00:47:07.946Z,805.2
2018-04-24T00:47:12.259Z,805.15
2018-04-24T00:47:16.467Z,805.16
2018-04-24T00:47:20.683Z,805.21
2018-04-24T00:47:24.997Z,805.23
2018-04-24T00:47:29.204Z,805.25
2018-04-24T00:47:33.195Z,805.23
2018-04-24T00:47:37.302Z,805.24
2018-04-24T00:47:41.411Z,805.24
2018-04-24T00:47:45.622Z,805.26
2018-04-24T00:47:49.830Z,805.24
2018-04-24T00:47:54.046Z,805.25
2018-04-24T00:47:58.260Z,805.25
2018-04-24T00:48:02.478Z,805.24
2018-04-24T00:48:06.693Z,805.24
2018-04-24T00:48:11.018Z,805.22
2018-04-24T00:48:15.225Z,805.24
2018-04-24T00:48:19.328Z,805.18
2018-04-24T00:48:23.539Z,805.21
2018-04-24T00:48:27.714Z,805.23
2018-04-24T00:48:32.029Z,805.25
2018-04-24T00:48:36.246Z,805.26
2018-04-24T00:48:40.519Z,805.23
2018-04-24T00:48:44.404Z,805.25
2018-04-24T00:48:48.611Z,805.24
2018-04-24T00:48:52.931Z,805.25
2018-04-24T00:48:57.253Z,805.24
2018-04-24T00:49:01.364Z,805.24
2018-04-24T00:49:05.421Z,805.22
2018-04-24T00:49:09.635Z,805.22
2018-04-24T00:49:13.848Z,805.2
2018-04-24T00:49:17.947Z,805.23
2018-04-24T00:49:22.186Z,805.24
2018-04-24T00:49:26.434Z,805.25
2018-04-24T00:49:30.645Z,805.23
2018-04-24T00:49:34.868Z,805.24
2018-04-24T00:49:39.077Z,805.24
2018-04-24T00:49:43.188Z,805.18
2018-04-24T00:49:47.401Z,805.19
2018-04-24T00:49:51.605Z,805.19
2018-04-24T00:49:55.825Z,805.23
2018-04-24T00:49:59.932Z,805.25
2018-04-24T00:50:04.334Z,805.2
2018-04-24T00:50:08.442Z,805.24
2018-04-24T00:50:12.560Z,805.23
2018-04-24T00:50:16.878Z,805.21
2018-04-24T00:50:20.995Z,805.22
2018-04-24T00:50:25.205Z,805.26
2018-04-24T00:50:29.310Z,805.23
2018-04-24T00:50:33.633Z,805.21
2018-04-24T00:50:37.853Z,805.24
2018-04-24T00:50:42.249Z,805.19
2018-04-24T00:50:46.465Z,805.23
2018-04-24T00:50:50.670Z,805.24
2018-04-24T00:50:54.996Z,805.24
2018-04-24T00:50:59.210Z,805.22
2018-04-24T00:51:03.402Z,805.22
2018-04-24T00:51:07.178Z,805.21
2018-04-24T00:51:11.567Z,805.24
2018-04-24T00:51:15.883Z,805.25
2018-04-24T00:51:19.981Z,805.22
2018-04-24T00:51:24.298Z,805.27
2018-04-24T00:51:28.405Z,805.25
2018-04-24T00:51:32.741Z,805.23
2018-04-24T00:51:37.062Z,805.26
2018-04-24T00:51:41.270Z,805.22
2018-04-24T00:51:45.485Z,805.26
2018-04-24T00:51:49.703Z,805.25
2018-04-24T00:51:53.916Z,805.3
2018-04-24T00:51:58.014Z,805.25
2018-04-24T00:52:02.228Z,805.28
2018-04-24T00:52:06.233Z,805.22
2018-04-24T00:52:10.343Z,805.23
2018-04-24T00:52:14.449Z,805.26
2018-04-24T00:52:18.773Z,805.23
2018-04-24T00:52:22.979Z,805.24
2018-04-24T00:52:27.194Z,805.27
2018-04-24T00:52:31.404Z,805.25
2018-04-24T00:52:35.722Z,805.22
2018-04-24T00:52:40.034Z,805.22
2018-04-24T00:52:44.243Z,805.29